createdAt,value
2022-12-19T00:02:43.652Z,1.3
2022-12-19T00:06:17.736Z,1.7
2022-12-19T00:11:18.174Z,1.2
2022-12-19T00:16:18.996Z,1.4
2022-12-19T00:21:18.837Z,1.1
2022-12-19T00:26:19.151Z,1.5
2022-12-19T00:31:19.554Z,1.3
2022-12-19T00:36:22.965Z,1.5
2022-12-19T00:41:20.107Z,1.5
2022-12-19T00:46:20.674Z,1.6
2022-12-19T00:51:20.773Z,1.4
2022-12-19T00:56:21.125Z,1.4
2022-12-19T01:01:21.640Z,1.1
2022-12-19T01:06:21.820Z,1.4
2022-12-19T01:11:22.108Z,1.3
2022-12-19T01:16:22.549Z,1.0
2022-12-19T01:21:22.851Z,1.8
2022-12-19T01:26:23.459Z,1.4
2022-12-19T01:31:23.820Z,1.4
2022-12-19T01:36:23.971Z,1.5
2022-12-19T01:41:24.440Z,1.2
2022-12-19T01:46:24.901Z,1.8
2022-12-19T01:51:25.184Z,1.3
2022-12-19T01:56:25.574Z,1.0
2022-12-19T02:01:26.287Z,1.4
2022-12-19T02:06:26.479Z,0.8
2022-12-19T02:11:26.746Z,1.1
2022-12-19T02:16:27.494Z,1.2
2022-12-19T02:21:27.584Z,0.9
2022-12-19T02:26:28.057Z,1.2
2022-12-19T02:31:28.632Z,1.4
2022-12-19T02:36:28.925Z,1.0
2022-12-19T02:41:29.353Z,1.1
2022-12-19T02:46:29.948Z,1.1
2022-12-19T02:51:30.116Z,1.1
2022-12-19T02:56:30.559Z,1.2
2022-12-19T03:01:31.403Z,1.1
2022-12-19T03:06:31.336Z,1.0
2022-12-19T03:11:31.769Z,1.1
2022-12-19T03:16:32.123Z,0.9
2022-12-19T03:21:32.553Z,1.2
2022-12-19T03:26:32.963Z,1.1
2022-12-19T03:31:33.533Z,1.1
2022-12-19T03:36:33.804Z,0.9
2022-12-19T03:41:34.328Z,0.9
2022-12-19T03:46:35.009Z,0.9
2022-12-19T03:51:35.077Z,0.9
2022-12-19T03:56:35.548Z,0.7
2022-12-19T04:01:36.392Z,0.8
2022-12-19T04:06:36.265Z,0.5
2022-12-19T04:11:36.643Z,0.7
2022-12-19T04:16:37.009Z,0.7
2022-12-19T04:21:37.470Z,0.5
2022-12-19T04:26:37.760Z,0.6
2022-12-19T04:31:38.306Z,0.4
2022-12-19T04:36:38.642Z,0.5
2022-12-19T04:41:38.982Z,0.4
2022-12-19T04:46:39.555Z,0.5
2022-12-19T04:51:39.785Z,0.5
2022-12-19T04:56:40.206Z,0.4
2022-12-19T05:01:40.856Z,0.5
2022-12-19T05:06:41.006Z,0.6
2022-12-19T05:11:41.517Z,0.6
2022-12-19T05:16:42.052Z,0.3
2022-12-19T05:21:42.472Z,0.4
2022-12-19T05:26:42.700Z,0.2
2022-12-19T05:31:43.382Z,0.3
2022-12-19T05:36:43.610Z,0.3
2022-12-19T05:41:47.570Z,0.3
2022-12-19T05:46:44.974Z,0.3
2022-12-19T05:51:44.858Z,0.3
2022-12-19T05:56:45.367Z,0.3
2022-12-19T06:01:46.359Z,0.4
2022-12-19T06:06:46.132Z,0.4
2022-12-19T06:11:46.617Z,0.3
2022-12-19T06:16:47.087Z,0.4
2022-12-19T06:21:48.246Z,0.3
2022-12-19T06:26:47.895Z,0.2
2022-12-19T06:31:48.449Z,0.3
2022-12-19T06:36:48.913Z,0.2
2022-12-19T06:41:49.372Z,0.3
2022-12-19T06:46:49.987Z,0.3
2022-12-19T06:51:50.130Z,0.2
2022-12-19T06:56:50.624Z,0.2
2022-12-19T07:01:51.269Z,0.3
2022-12-19T07:06:51.501Z,0.1
2022-12-19T07:11:51.844Z,0.2
2022-12-19T07:16:52.521Z,0.2
2022-12-19T07:21:52.801Z,0.2
2022-12-19T07:26:53.358Z,0.2
2022-12-19T07:31:53.824Z,0.2
2022-12-19T07:36:54.220Z,0.2
2022-12-19T07:41:54.701Z,0.3
2022-12-19T07:46:55.261Z,0.2
2022-12-19T07:51:55.780Z,0.1
2022-12-19T07:56:56.138Z,0.2
2022-12-19T08:01:57.011Z,0.2
2022-12-19T08:06:57.090Z,0.2
2022-12-19T08:11:57.641Z,0.1
2022-12-19T08:17:19.698Z,0.2
2022-12-19T08:21:58.608Z,0.2
2022-12-19T08:26:59.014Z,0.2
2022-12-19T08:31:59.757Z,0.2
2022-12-19T08:37:00.032Z,0.2
2022-12-19T08:42:00.598Z,0.2
2022-12-19T08:47:01.341Z,0.1
2022-12-19T08:52:01.544Z,0.1
2022-12-19T08:57:02.012Z,0.1
2022-12-19T09:02:02.842Z,0.2
2022-12-19T09:07:03.037Z,0.1
2022-12-19T09:12:03.589Z,0.2
2022-12-19T09:17:04.878Z,0.2
2022-12-19T09:22:04.511Z,0.2
2022-12-19T09:27:04.978Z,0.2
2022-12-19T09:32:05.621Z,0.1
2022-12-19T09:37:05.979Z,0.1
2022-12-19T09:42:06.542Z,0.1
2022-12-19T09:47:07.064Z,0.1
2022-12-19T09:52:07.442Z,0.2
2022-12-19T09:57:07.920Z,0.1
2022-12-19T10:02:08.536Z,0.1
2022-12-19T10:07:30.560Z,0.1
2022-12-19T10:12:41.103Z,0.1
2022-12-19T10:17:24.303Z,0.1
2022-12-19T10:22:18.685Z,0.1
2022-12-19T10:27:10.992Z,0.1
2022-12-19T10:32:11.604Z,0.1
2022-12-19T10:37:25.590Z,0.1
2022-12-19T10:42:12.518Z,0.1
2022-12-19T10:47:13.062Z,0.1
2022-12-19T10:52:13.468Z,0.1
2022-12-19T10:57:13.822Z,0.1
2022-12-19T11:02:14.864Z,0.0
2022-12-19T11:07:14.822Z,0.1
2022-12-19T11:13:19.256Z,0.1
2022-12-19T11:24:22.554Z,0.1
2022-12-19T11:29:31.408Z,0.1
2022-12-19T11:30:36.679Z,0.1
2022-12-19T11:32:39.718Z,0.1
2022-12-19T11:37:17.746Z,0.1
2022-12-19T11:42:18.384Z,0.1
2022-12-19T11:47:19.007Z,0.1
2022-12-19T11:52:54.260Z,0.1
2022-12-19T11:57:19.818Z,0.1
2022-12-19T12:02:20.464Z,0.1
2022-12-19T12:07:39.871Z,0.1
2022-12-19T12:19:01.886Z,0.1
2022-12-19T12:30:33.532Z,0.1
2022-12-19T12:31:17.979Z,0.1
2022-12-19T12:31:58.824Z,0.1
2022-12-19T12:35:30.229Z,0.1
2022-12-19T12:35:51.345Z,0.1
2022-12-19T12:42:24.452Z,0.1
2022-12-19T12:47:25.272Z,0.1
2022-12-19T12:52:25.481Z,0.1
2022-12-19T12:57:25.924Z,0.1
2022-12-19T13:02:26.692Z,0.1
2022-12-19T13:07:26.928Z,0.1
2022-12-19T13:12:27.463Z,0.0
2022-12-19T13:17:28.007Z,0.1
2022-12-19T13:22:28.495Z,0.0
2022-12-19T13:27:28.927Z,0.1
2022-12-19T13:32:29.568Z,0.1
2022-12-19T13:39:51.037Z,0.1
2022-12-19T13:42:30.488Z,0.1
2022-12-19T13:47:31.035Z,0.1
2022-12-19T13:52:31.542Z,0.0
2022-12-19T13:57:31.892Z,0.1
2022-12-19T14:02:34.864Z,0.1
2022-12-19T14:07:35.926Z,0.1
2022-12-19T14:13:43.527Z,0.1
2022-12-19T14:17:33.915Z,0.1
2022-12-19T14:22:34.511Z,0.1
2022-12-19T14:28:21.685Z,0.1
2022-12-19T14:33:44.778Z,0.1
2022-12-19T14:38:44.919Z,0.1
2022-12-19T14:44:00.404Z,0.1
2022-12-19T14:53:33.929Z,0.1
2022-12-19T14:54:31.360Z,0.2
2022-12-19T14:58:56.056Z,0.1
2022-12-19T15:02:39.049Z,0.1
2022-12-19T15:07:38.923Z,0.1
2022-12-19T15:14:48.491Z,0.1
2022-12-19T15:17:39.989Z,0.2
2022-12-19T15:22:40.487Z,0.1
2022-12-19T15:27:40.898Z,0.1
2022-12-19T15:32:41.610Z,0.1
2022-12-19T15:37:41.879Z,0.1
2022-12-19T15:42:42.446Z,0.1
2022-12-19T15:47:43.000Z,0.2
2022-12-19T15:52:43.415Z,0.1
2022-12-19T15:57:43.854Z,0.2
2022-12-19T16:07:44.921Z,0.1
2022-12-19T16:12:45.571Z,0.1
2022-12-19T16:17:46.404Z,0.1
2022-12-19T16:22:46.539Z,0.1
2022-12-19T16:27:46.949Z,0.1
2022-12-19T16:32:47.566Z,0.1
2022-12-19T16:37:47.969Z,0.1
2022-12-19T16:42:48.492Z,0.1
2022-12-19T16:47:49.352Z,0.1
2022-12-19T16:52:49.605Z,0.2
2022-12-19T16:57:49.927Z,0.1
2022-12-19T17:02:50.889Z,0.1
2022-12-19T17:07:51.007Z,0.1
2022-12-19T17:12:51.616Z,0.1
2022-12-19T17:17:52.136Z,0.1
2022-12-19T17:22:52.604Z,0.2
2022-12-19T17:27:53.102Z,0.1
2022-12-19T17:32:53.614Z,0.1
2022-12-19T17:37:54.169Z,0.1
2022-12-19T17:42:54.687Z,0.1
2022-12-19T17:48:02.043Z,0.1
2022-12-19T17:52:55.710Z,0.4
2022-12-19T17:57:56.090Z,1.1
2022-12-19T18:02:57.111Z,1.0
2022-12-19T18:07:57.329Z,0.9
2022-12-19T18:12:57.698Z,1.1
2022-12-19T18:17:58.259Z,1.0
2022-12-19T18:22:58.722Z,0.9
2022-12-19T18:27:59.215Z,1.4
2022-12-19T18:33:00.065Z,1.0
2022-12-19T18:38:00.191Z,1.2
2022-12-19T18:43:00.835Z,1.4
2022-12-19T18:48:01.602Z,1.6
2022-12-19T18:53:01.787Z,2.2
2022-12-19T18:58:02.386Z,1.8
2022-12-19T19:03:03.211Z,2.2
2022-12-19T19:08:03.396Z,2.4
2022-12-19T19:13:09.762Z,2.4
2022-12-19T19:18:04.464Z,2.0
2022-12-19T19:23:04.876Z,2.2
2022-12-19T19:28:05.414Z,1.6
2022-12-19T19:33:05.848Z,1.2
2022-12-19T19:38:06.431Z,1.1
2022-12-19T19:43:06.941Z,1.2
2022-12-19T19:48:07.724Z,0.7
2022-12-19T19:53:07.793Z,0.9
2022-12-19T19:58:08.480Z,0.9
2022-12-19T20:03:10.753Z,0.7
2022-12-19T20:08:09.515Z,0.9
2022-12-19T20:13:09.892Z,1.0
2022-12-19T20:18:10.600Z,1.2
2022-12-19T20:23:10.975Z,1.4
2022-12-19T20:28:11.594Z,1.3
2022-12-19T20:33:12.151Z,1.1
2022-12-19T20:38:12.643Z,0.9
2022-12-19T20:43:13.040Z,1.2
2022-12-19T20:48:13.825Z,1.4
2022-12-19T20:53:14.147Z,1.3
2022-12-19T20:58:14.735Z,1.5
2022-12-19T21:03:27.851Z,1.3
2022-12-19T21:08:15.634Z,1.2
2022-12-19T21:13:16.161Z,1.3
2022-12-19T21:18:16.811Z,1.9
2022-12-19T21:23:17.137Z,1.8
2022-12-19T21:28:17.731Z,1.5
2022-12-19T21:33:18.186Z,1.5
2022-12-19T21:38:18.641Z,2.1
2022-12-19T21:43:19.234Z,1.7
2022-12-19T21:48:20.128Z,1.5
2022-12-19T21:53:20.141Z,1.7
2022-12-19T21:58:20.725Z,1.7
2022-12-19T22:03:21.284Z,2.5
2022-12-19T22:08:21.753Z,1.8
2022-12-19T22:13:22.135Z,1.9
2022-12-19T22:18:22.754Z,2.0
2022-12-19T22:23:23.002Z,1.8
2022-12-19T22:28:23.539Z,2.1
2022-12-19T22:33:24.016Z,2.1
2022-12-19T22:38:24.807Z,2.0
2022-12-19T22:43:24.975Z,1.7
2022-12-19T22:48:25.733Z,1.8
2022-12-19T22:53:25.882Z,1.4
2022-12-19T22:58:26.483Z,1.5
2022-12-19T23:03:27.088Z,1.7
2022-12-19T23:08:27.397Z,1.5
2022-12-19T23:13:27.792Z,1.6
2022-12-19T23:18:28.439Z,1.2
2022-12-19T23:23:28.732Z,1.3
2022-12-19T23:28:29.231Z,1.0
2022-12-19T23:33:29.717Z,1.1
2022-12-19T23:38:30.123Z,1.6
2022-12-19T23:43:30.715Z,1.2
2022-12-19T23:48:31.230Z,1.5
2022-12-19T23:53:31.709Z,1.3
2022-12-19T23:58:32.059Z,1.4
